Juan Dias, Panama
Current Conditions -  °F | °C
As of 1:00 PM on Wednesday 28 Jan 2015 (Local Time) from MPMG Reporting Station
Few Clouds Few Clouds  
Wind Chill: 88°   Ceiling: Unl
Heat Index: 91°   Visibility: 6mi
Dew Point: 68°   Wind: 14mph
Humidity: 52%   Direction: 20°NNE
Pressure: 29.85"   Gusts: NA
Location:  8.97°N, 79.51°W
Report Text: MPMG 281800Z 02012KT 9999 FEW020 31/20 Q1011 NOSIG
Loading
Personal Weather Stations






























Interactive Weather Map New forecast layout! Learn more

10-Day Weather Forecast

Advertisements
Track Severe Weather on mobile